sensor_id;sensor_type;location;lat;lon;timestamp;P1;durP1;ratioP1;P2;durP2;ratioP2
29548;SDS011;16487;53.094;8.800;2022-10-16T00:00:42;2.67;;;2.30;;
29548;SDS011;16487;53.094;8.800;2022-10-16T00:03:10;3.30;;;1.83;;
29548;SDS011;16487;53.094;8.800;2022-10-16T00:05:38;3.40;;;2.63;;
29548;SDS011;16487;53.094;8.800;2022-10-16T00:08:07;3.00;;;1.70;;
29548;SDS011;16487;53.094;8.800;2022-10-16T00:10:35;3.03;;;2.40;;
29548;SDS011;16487;53.094;8.800;2022-10-16T00:13:03;3.50;;;2.40;;
29548;SDS011;16487;53.094;8.800;2022-10-16T00:15:32;2.63;;;2.43;;
29548;SDS011;16487;53.094;8.800;2022-10-16T00:18:00;4.53;;;2.47;;
29548;SDS011;16487;53.094;8.800;2022-10-16T00:20:28;3.70;;;2.47;;
29548;SDS011;16487;53.094;8.800;2022-10-16T00:22:55;2.30;;;1.90;;
29548;SDS011;16487;53.094;8.800;2022-10-16T00:25:22;2.63;;;1.80;;
29548;SDS011;16487;53.094;8.800;2022-10-16T00:27:50;3.10;;;1.97;;
29548;SDS011;16487;53.094;8.800;2022-10-16T00:30:18;3.00;;;2.43;;
29548;SDS011;16487;53.094;8.800;2022-10-16T00:32:45;3.13;;;1.90;;
29548;SDS011;16487;53.094;8.800;2022-10-16T00:35:13;3.43;;;2.47;;
29548;SDS011;16487;53.094;8.800;2022-10-16T00:37:40;2.40;;;1.97;;
29548;SDS011;16487;53.094;8.800;2022-10-16T00:40:08;4.30;;;2.30;;
29548;SDS011;16487;53.094;8.800;2022-10-16T00:42:36;2.43;;;2.17;;
29548;SDS011;16487;53.094;8.800;2022-10-16T00:45:04;2.97;;;2.27;;
29548;SDS011;16487;53.094;8.800;2022-10-16T00:47:34;2.87;;;2.03;;
29548;SDS011;16487;53.094;8.800;2022-10-16T00:50:05;2.70;;;2.10;;
29548;SDS011;16487;53.094;8.800;2022-10-16T00:52:36;2.87;;;1.70;;
29548;SDS011;16487;53.094;8.800;2022-10-16T00:55:06;3.33;;;1.67;;
29548;SDS011;16487;53.094;8.800;2022-10-16T00:57:35;4.80;;;2.10;;
29548;SDS011;16487;53.094;8.800;2022-10-16T01:00:03;4.37;;;2.13;;
29548;SDS011;16487;53.094;8.800;2022-10-16T01:02:34;2.67;;;1.70;;
29548;SDS011;16487;53.094;8.800;2022-10-16T01:05:02;3.30;;;2.03;;
29548;SDS011;16487;53.094;8.800;2022-10-16T01:07:33;3.90;;;1.97;;
29548;SDS011;16487;53.094;8.800;2022-10-16T01:10:10;2.20;;;1.60;;
29548;SDS011;16487;53.094;8.800;2022-10-16T01:12:48;2.47;;;1.90;;
29548;SDS011;16487;53.094;8.800;2022-10-16T01:15:21;2.90;;;2.30;;
29548;SDS011;16487;53.094;8.800;2022-10-16T01:17:56;5.60;;;3.07;;
29548;SDS011;16487;53.094;8.800;2022-10-16T01:20:29;2.57;;;2.37;;
29548;SDS011;16487;53.094;8.800;2022-10-16T01:23:12;3.20;;;2.77;;
29548;SDS011;16487;53.094;8.800;2022-10-16T01:28:43;3.10;;;2.47;;
29548;SDS011;16487;53.094;8.800;2022-10-16T01:31:17;3.53;;;2.60;;
29548;SDS011;16487;53.094;8.800;2022-10-16T01:33:47;2.93;;;2.67;;
29548;SDS011;16487;53.094;8.800;2022-10-16T01:36:34;3.03;;;2.50;;
29548;SDS011;16487;53.094;8.800;2022-10-16T01:39:04;4.60;;;3.30;;
29548;SDS011;16487;53.094;8.800;2022-10-16T01:41:36;3.93;;;2.80;;
29548;SDS011;16487;53.094;8.800;2022-10-16T01:44:10;3.37;;;2.40;;
29548;SDS011;16487;53.094;8.800;2022-10-16T01:46:42;2.73;;;2.50;;
29548;SDS011;16487;53.094;8.800;2022-10-16T01:49:13;4.93;;;3.63;;
29548;SDS011;16487;53.094;8.800;2022-10-16T01:51:41;3.37;;;3.07;;
29548;SDS011;16487;53.094;8.800;2022-10-16T01:54:11;4.07;;;2.87;;
29548;SDS011;16487;53.094;8.800;2022-10-16T01:56:43;3.47;;;2.53;;
29548;SDS011;16487;53.094;8.800;2022-10-16T01:59:12;3.10;;;2.43;;
29548;SDS011;16487;53.094;8.800;2022-10-16T02:01:44;3.50;;;3.20;;
29548;SDS011;16487;53.094;8.800;2022-10-16T02:04:16;6.07;;;2.70;;
29548;SDS011;16487;53.094;8.800;2022-10-16T02:06:48;3.43;;;3.13;;
29548;SDS011;16487;53.094;8.800;2022-10-16T02:09:15;3.03;;;2.73;;
29548;SDS011;16487;53.094;8.800;2022-10-16T02:11:43;3.20;;;2.90;;
29548;SDS011;16487;53.094;8.800;2022-10-16T02:14:12;4.10;;;2.70;;
29548;SDS011;16487;53.094;8.800;2022-10-16T02:16:40;3.90;;;3.17;;
29548;SDS011;16487;53.094;8.800;2022-10-16T02:19:11;4.33;;;3.27;;
29548;SDS011;16487;53.094;8.800;2022-10-16T02:21:41;4.63;;;3.20;;
29548;SDS011;16487;53.094;8.800;2022-10-16T02:24:13;5.40;;;2.37;;
29548;SDS011;16487;53.094;8.800;2022-10-16T02:26:48;3.83;;;3.27;;
29548;SDS011;16487;53.094;8.800;2022-10-16T02:29:21;3.47;;;3.17;;
29548;SDS011;16487;53.094;8.800;2022-10-16T02:31:54;4.33;;;2.50;;
29548;SDS011;16487;53.094;8.800;2022-10-16T02:34:26;4.37;;;2.70;;
29548;SDS011;16487;53.094;8.800;2022-10-16T02:36:56;5.20;;;2.90;;
29548;SDS011;16487;53.094;8.800;2022-10-16T02:39:25;4.60;;;3.27;;
29548;SDS011;16487;53.094;8.800;2022-10-16T02:41:55;4.40;;;2.87;;
29548;SDS011;16487;53.094;8.800;2022-10-16T02:44:24;3.73;;;2.60;;
29548;SDS011;16487;53.094;8.800;2022-10-16T02:46:51;7.60;;;3.73;;
29548;SDS011;16487;53.094;8.800;2022-10-16T02:49:18;4.57;;;2.77;;
29548;SDS011;16487;53.094;8.800;2022-10-16T02:51:46;4.87;;;2.73;;
29548;SDS011;16487;53.094;8.800;2022-10-16T02:54:13;3.83;;;3.53;;
29548;SDS011;16487;53.094;8.800;2022-10-16T02:56:40;5.53;;;3.50;;
29548;SDS011;16487;53.094;8.800;2022-10-16T02:59:07;5.03;;;3.37;;
29548;SDS011;16487;53.094;8.800;2022-10-16T03:01:36;4.03;;;3.37;;
29548;SDS011;16487;53.094;8.800;2022-10-16T03:04:03;5.17;;;3.60;;
29548;SDS011;16487;53.094;8.800;2022-10-16T03:06:31;6.20;;;3.10;;
29548;SDS011;16487;53.094;8.800;2022-10-16T03:08:58;4.60;;;3.40;;
29548;SDS011;16487;53.094;8.800;2022-10-16T03:11:25;4.20;;;3.57;;
29548;SDS011;16487;53.094;8.800;2022-10-16T03:13:52;4.90;;;3.50;;
29548;SDS011;16487;53.094;8.800;2022-10-16T03:16:20;3.73;;;3.03;;
29548;SDS011;16487;53.094;8.800;2022-10-16T03:18:49;6.63;;;3.73;;
29548;SDS011;16487;53.094;8.800;2022-10-16T03:21:16;6.37;;;3.50;;
29548;SDS011;16487;53.094;8.800;2022-10-16T03:23:43;6.20;;;4.83;;
29548;SDS011;16487;53.094;8.800;2022-10-16T03:26:11;4.23;;;3.83;;
29548;SDS011;16487;53.094;8.800;2022-10-16T03:28:38;6.77;;;3.60;;
29548;SDS011;16487;53.094;8.800;2022-10-16T03:31:05;7.97;;;3.80;;
29548;SDS011;16487;53.094;8.800;2022-10-16T03:33:32;5.83;;;4.03;;
29548;SDS011;16487;53.094;8.800;2022-10-16T03:36:01;5.17;;;4.30;;
29548;SDS011;16487;53.094;8.800;2022-10-16T03:38:28;7.13;;;4.50;;
29548;SDS011;16487;53.094;8.800;2022-10-16T03:40:56;5.03;;;4.30;;
29548;SDS011;16487;53.094;8.800;2022-10-16T03:43:23;8.23;;;4.40;;
29548;SDS011;16487;53.094;8.800;2022-10-16T03:45:50;5.30;;;4.30;;
29548;SDS011;16487;53.094;8.800;2022-10-16T03:48:17;11.60;;;6.30;;
29548;SDS011;16487;53.094;8.800;2022-10-16T03:50:45;6.67;;;5.00;;
29548;SDS011;16487;53.094;8.800;2022-10-16T03:53:13;5.53;;;4.80;;
29548;SDS011;16487;53.094;8.800;2022-10-16T03:55:42;5.43;;;4.73;;
29548;SDS011;16487;53.094;8.800;2022-10-16T03:58:09;5.37;;;4.87;;
29548;SDS011;16487;53.094;8.800;2022-10-16T04:00:39;10.13;;;5.60;;
29548;SDS011;16487;53.094;8.800;2022-10-16T04:03:07;8.30;;;5.07;;
29548;SDS011;16487;53.094;8.800;2022-10-16T04:05:34;9.13;;;5.53;;
29548;SDS011;16487;53.094;8.800;2022-10-16T04:08:02;9.73;;;6.50;;
29548;SDS011;16487;53.094;8.800;2022-10-16T04:10:30;6.93;;;6.20;;
29548;SDS011;16487;53.094;8.800;2022-10-16T04:12:58;6.13;;;5.50;;
29548;SDS011;16487;53.094;8.800;2022-10-16T04:15:25;8.90;;;5.40;;
29548;SDS011;16487;53.094;8.800;2022-10-16T04:17:52;9.07;;;7.30;;
29548;SDS011;16487;53.094;8.800;2022-10-16T04:20:20;8.67;;;6.80;;
29548;SDS011;16487;53.094;8.800;2022-10-16T04:22:47;10.30;;;7.33;;
29548;SDS011;16487;53.094;8.800;2022-10-16T04:25:14;11.67;;;8.67;;
29548;SDS011;16487;53.094;8.800;2022-10-16T04:27:43;9.23;;;8.40;;
29548;SDS011;16487;53.094;8.800;2022-10-16T04:30:12;7.47;;;6.53;;
29548;SDS011;16487;53.094;8.800;2022-10-16T04:32:39;10.30;;;9.23;;
29548;SDS011;16487;53.094;8.800;2022-10-16T04:35:07;10.10;;;8.60;;
29548;SDS011;16487;53.094;8.800;2022-10-16T04:37:35;12.90;;;9.33;;
29548;SDS011;16487;53.094;8.800;2022-10-16T04:40:02;11.20;;;9.77;;
29548;SDS011;16487;53.094;8.800;2022-10-16T04:42:30;13.00;;;9.77;;
29548;SDS011;16487;53.094;8.800;2022-10-16T04:44:59;12.80;;;8.70;;
29548;SDS011;16487;53.094;8.800;2022-10-16T04:47:26;21.40;;;10.10;;
29548;SDS011;16487;53.094;8.800;2022-10-16T04:49:54;15.77;;;9.80;;
29548;SDS011;16487;53.094;8.800;2022-10-16T04:52:21;17.80;;;11.40;;
29548;SDS011;16487;53.094;8.800;2022-10-16T04:54:49;15.90;;;11.07;;
29548;SDS011;16487;53.094;8.800;2022-10-16T04:57:16;14.23;;;9.93;;
29548;SDS011;16487;53.094;8.800;2022-10-16T04:59:43;16.70;;;11.70;;
29548;SDS011;16487;53.094;8.800;2022-10-16T05:02:12;18.10;;;12.13;;
29548;SDS011;16487;53.094;8.800;2022-10-16T05:04:39;15.03;;;12.03;;
29548;SDS011;16487;53.094;8.800;2022-10-16T05:07:07;22.93;;;12.33;;
29548;SDS011;16487;53.094;8.800;2022-10-16T05:09:34;14.43;;;12.10;;
29548;SDS011;16487;53.094;8.800;2022-10-16T05:12:01;17.57;;;12.47;;
29548;SDS011;16487;53.094;8.800;2022-10-16T05:14:29;16.17;;;12.43;;
29548;SDS011;16487;53.094;8.800;2022-10-16T05:16:56;15.77;;;12.87;;
29548;SDS011;16487;53.094;8.800;2022-10-16T05:19:25;13.07;;;11.70;;
29548;SDS011;16487;53.094;8.800;2022-10-16T05:21:54;13.87;;;12.23;;
29548;SDS011;16487;53.094;8.800;2022-10-16T05:24:21;17.43;;;12.97;;
29548;SDS011;16487;53.094;8.800;2022-10-16T05:26:49;16.30;;;13.30;;
29548;SDS011;16487;53.094;8.800;2022-10-16T05:29:17;15.50;;;12.77;;
29548;SDS011;16487;53.094;8.800;2022-10-16T05:31:44;14.40;;;12.70;;
29548;SDS011;16487;53.094;8.800;2022-10-16T05:34:11;13.77;;;12.10;;
29548;SDS011;16487;53.094;8.800;2022-10-16T05:36:40;18.27;;;13.13;;
29548;SDS011;16487;53.094;8.800;2022-10-16T05:39:07;16.30;;;12.73;;
29548;SDS011;16487;53.094;8.800;2022-10-16T05:41:34;15.03;;;12.50;;
29548;SDS011;16487;53.094;8.800;2022-10-16T05:44:03;16.07;;;12.73;;
29548;SDS011;16487;53.094;8.800;2022-10-16T05:46:31;16.60;;;13.83;;
29548;SDS011;16487;53.094;8.800;2022-10-16T05:48:58;20.90;;;14.50;;
29548;SDS011;16487;53.094;8.800;2022-10-16T05:51:26;17.40;;;13.70;;
29548;SDS011;16487;53.094;8.800;2022-10-16T05:53:54;18.10;;;14.07;;
29548;SDS011;16487;53.094;8.800;2022-10-16T05:56:22;17.37;;;13.33;;
29548;SDS011;16487;53.094;8.800;2022-10-16T05:58:49;19.73;;;13.67;;
29548;SDS011;16487;53.094;8.800;2022-10-16T06:01:17;17.10;;;15.37;;
29548;SDS011;16487;53.094;8.800;2022-10-16T06:03:45;20.17;;;14.50;;
29548;SDS011;16487;53.094;8.800;2022-10-16T06:06:13;23.93;;;15.80;;
29548;SDS011;16487;53.094;8.800;2022-10-16T06:08:42;17.70;;;13.77;;
29548;SDS011;16487;53.094;8.800;2022-10-16T06:11:13;17.87;;;16.00;;
29548;SDS011;16487;53.094;8.800;2022-10-16T06:13:42;16.77;;;14.03;;
29548;SDS011;16487;53.094;8.800;2022-10-16T06:16:09;18.90;;;14.27;;
29548;SDS011;16487;53.094;8.800;2022-10-16T06:18:37;18.00;;;14.27;;
29548;SDS011;16487;53.094;8.800;2022-10-16T06:21:06;15.20;;;12.10;;
29548;SDS011;16487;53.094;8.800;2022-10-16T06:23:34;15.23;;;13.13;;
29548;SDS011;16487;53.094;8.800;2022-10-16T06:26:05;15.93;;;14.30;;
29548;SDS011;16487;53.094;8.800;2022-10-16T06:28:34;18.77;;;15.43;;
29548;SDS011;16487;53.094;8.800;2022-10-16T06:31:02;17.83;;;12.30;;
29548;SDS011;16487;53.094;8.800;2022-10-16T06:33:34;16.40;;;13.77;;
29548;SDS011;16487;53.094;8.800;2022-10-16T06:36:02;15.57;;;12.37;;
29548;SDS011;16487;53.094;8.800;2022-10-16T06:38:31;15.30;;;11.20;;
29548;SDS011;16487;53.094;8.800;2022-10-16T06:40:59;15.07;;;12.00;;
29548;SDS011;16487;53.094;8.800;2022-10-16T06:43:27;14.97;;;11.50;;
29548;SDS011;16487;53.094;8.800;2022-10-16T06:45:58;13.40;;;12.00;;
29548;SDS011;16487;53.094;8.800;2022-10-16T06:48:26;12.50;;;11.20;;
29548;SDS011;16487;53.094;8.800;2022-10-16T06:50:57;13.77;;;11.23;;
29548;SDS011;16487;53.094;8.800;2022-10-16T06:53:26;16.40;;;11.87;;
29548;SDS011;16487;53.094;8.800;2022-10-16T06:55:55;12.73;;;10.77;;
29548;SDS011;16487;53.094;8.800;2022-10-16T06:58:23;12.27;;;10.97;;
29548;SDS011;16487;53.094;8.800;2022-10-16T07:00:54;14.90;;;12.47;;
29548;SDS011;16487;53.094;8.800;2022-10-16T07:03:23;15.27;;;10.27;;
29548;SDS011;16487;53.094;8.800;2022-10-16T07:05:51;10.90;;;9.33;;
29548;SDS011;16487;53.094;8.800;2022-10-16T07:08:18;14.67;;;9.97;;
29548;SDS011;16487;53.094;8.800;2022-10-16T07:10:45;14.93;;;10.90;;
29548;SDS011;16487;53.094;8.800;2022-10-16T07:13:13;14.00;;;9.77;;
29548;SDS011;16487;53.094;8.800;2022-10-16T07:15:40;11.70;;;8.37;;
29548;SDS011;16487;53.094;8.800;2022-10-16T07:18:08;13.70;;;10.07;;
29548;SDS011;16487;53.094;8.800;2022-10-16T07:20:36;10.50;;;9.40;;
29548;SDS011;16487;53.094;8.800;2022-10-16T07:23:04;12.20;;;10.57;;
29548;SDS011;16487;53.094;8.800;2022-10-16T07:25:31;12.23;;;11.03;;
29548;SDS011;16487;53.094;8.800;2022-10-16T07:27:58;13.83;;;10.40;;
29548;SDS011;16487;53.094;8.800;2022-10-16T07:30:25;8.80;;;7.90;;
29548;SDS011;16487;53.094;8.800;2022-10-16T07:32:53;12.70;;;8.87;;
29548;SDS011;16487;53.094;8.800;2022-10-16T07:35:20;11.27;;;8.53;;
29548;SDS011;16487;53.094;8.800;2022-10-16T07:37:48;10.37;;;8.43;;
29548;SDS011;16487;53.094;8.800;2022-10-16T07:40:16;7.90;;;7.20;;
29548;SDS011;16487;53.094;8.800;2022-10-16T07:42:43;11.30;;;8.77;;
29548;SDS011;16487;53.094;8.800;2022-10-16T07:45:10;8.70;;;6.70;;
29548;SDS011;16487;53.094;8.800;2022-10-16T07:47:38;9.30;;;6.43;;
29548;SDS011;16487;53.094;8.800;2022-10-16T07:50:05;8.40;;;6.87;;
29548;SDS011;16487;53.094;8.800;2022-10-16T07:52:33;7.80;;;7.00;;
29548;SDS011;16487;53.094;8.800;2022-10-16T07:55:01;11.20;;;8.40;;
29548;SDS011;16487;53.094;8.800;2022-10-16T07:57:29;8.90;;;7.40;;
29548;SDS011;16487;53.094;8.800;2022-10-16T07:59:56;11.20;;;7.17;;
29548;SDS011;16487;53.094;8.800;2022-10-16T08:02:24;9.13;;;6.57;;
29548;SDS011;16487;53.094;8.800;2022-10-16T08:04:51;5.93;;;5.30;;
29548;SDS011;16487;53.094;8.800;2022-10-16T08:07:18;6.80;;;6.13;;
29548;SDS011;16487;53.094;8.800;2022-10-16T08:09:48;5.77;;;5.20;;
29548;SDS011;16487;53.094;8.800;2022-10-16T08:12:17;4.40;;;4.00;;
29548;SDS011;16487;53.094;8.800;2022-10-16T08:14:45;6.03;;;4.77;;
29548;SDS011;16487;53.094;8.800;2022-10-16T08:17:14;4.93;;;4.53;;
29548;SDS011;16487;53.094;8.800;2022-10-16T08:19:43;7.47;;;4.40;;
29548;SDS011;16487;53.094;8.800;2022-10-16T08:22:11;4.70;;;4.30;;
29548;SDS011;16487;53.094;8.800;2022-10-16T08:24:40;5.43;;;4.50;;
29548;SDS011;16487;53.094;8.800;2022-10-16T08:27:07;4.60;;;4.20;;
29548;SDS011;16487;53.094;8.800;2022-10-16T08:29:36;5.40;;;4.10;;
29548;SDS011;16487;53.094;8.800;2022-10-16T08:32:03;4.07;;;3.27;;
29548;SDS011;16487;53.094;8.800;2022-10-16T08:34:31;5.47;;;4.07;;
29548;SDS011;16487;53.094;8.800;2022-10-16T08:36:58;3.93;;;3.13;;
29548;SDS011;16487;53.094;8.800;2022-10-16T08:39:25;3.53;;;3.17;;
29548;SDS011;16487;53.094;8.800;2022-10-16T08:42:04;5.80;;;3.70;;
29548;SDS011;16487;53.094;8.800;2022-10-16T08:44:57;3.57;;;3.27;;
29548;SDS011;16487;53.094;8.800;2022-10-16T08:47:47;5.90;;;3.27;;
29548;SDS011;16487;53.094;8.800;2022-10-16T08:50:21;3.90;;;3.50;;
29548;SDS011;16487;53.094;8.800;2022-10-16T08:52:50;7.37;;;3.87;;
29548;SDS011;16487;53.094;8.800;2022-10-16T08:55:28;4.30;;;2.40;;
29548;SDS011;16487;53.094;8.800;2022-10-16T08:58:00;4.10;;;2.97;;
29548;SDS011;16487;53.094;8.800;2022-10-16T09:00:29;3.20;;;2.90;;
29548;SDS011;16487;53.094;8.800;2022-10-16T09:02:59;3.00;;;2.80;;
29548;SDS011;16487;53.094;8.800;2022-10-16T09:05:43;28.57;;;18.53;;
29548;SDS011;16487;53.094;8.800;2022-10-16T09:08:28;5.20;;;2.83;;
29548;SDS011;16487;53.094;8.800;2022-10-16T09:11:06;5.13;;;3.27;;
29548;SDS011;16487;53.094;8.800;2022-10-16T09:13:43;2.90;;;2.50;;
29548;SDS011;16487;53.094;8.800;2022-10-16T09:16:20;6.00;;;2.80;;
29548;SDS011;16487;53.094;8.800;2022-10-16T09:18:52;1.63;;;1.50;;
29548;SDS011;16487;53.094;8.800;2022-10-16T09:21:25;3.20;;;2.40;;
29548;SDS011;16487;53.094;8.800;2022-10-16T09:23:57;3.80;;;2.20;;
29548;SDS011;16487;53.094;8.800;2022-10-16T09:26:26;2.70;;;1.90;;
29548;SDS011;16487;53.094;8.800;2022-10-16T09:28:54;4.60;;;2.00;;
29548;SDS011;16487;53.094;8.800;2022-10-16T09:31:23;2.33;;;1.43;;
29548;SDS011;16487;53.094;8.800;2022-10-16T09:33:52;2.80;;;2.00;;
29548;SDS011;16487;53.094;8.800;2022-10-16T09:36:21;1.80;;;1.60;;
29548;SDS011;16487;53.094;8.800;2022-10-16T09:39:01;2.77;;;2.37;;
29548;SDS011;16487;53.094;8.800;2022-10-16T09:41:30;3.57;;;2.40;;
29548;SDS011;16487;53.094;8.800;2022-10-16T09:44:01;2.93;;;1.80;;
29548;SDS011;16487;53.094;8.800;2022-10-16T09:46:32;3.33;;;2.17;;
29548;SDS011;16487;53.094;8.800;2022-10-16T09:49:02;2.27;;;1.40;;
29548;SDS011;16487;53.094;8.800;2022-10-16T09:51:32;2.37;;;1.30;;
29548;SDS011;16487;53.094;8.800;2022-10-16T09:54:01;3.70;;;1.77;;
29548;SDS011;16487;53.094;8.800;2022-10-16T09:56:39;2.90;;;1.77;;
29548;SDS011;16487;53.094;8.800;2022-10-16T09:59:08;4.63;;;2.20;;
29548;SDS011;16487;53.094;8.800;2022-10-16T10:01:40;4.40;;;1.50;;
29548;SDS011;16487;53.094;8.800;2022-10-16T10:04:09;1.70;;;1.60;;
29548;SDS011;16487;53.094;8.800;2022-10-16T10:06:40;2.73;;;1.80;;
29548;SDS011;16487;53.094;8.800;2022-10-16T10:09:17;4.40;;;1.43;;
29548;SDS011;16487;53.094;8.800;2022-10-16T10:11:49;4.90;;;1.83;;
29548;SDS011;16487;53.094;8.800;2022-10-16T10:14:23;3.00;;;1.67;;
29548;SDS011;16487;53.094;8.800;2022-10-16T10:17:11;2.60;;;1.80;;
29548;SDS011;16487;53.094;8.800;2022-10-16T10:19:43;1.97;;;1.80;;
29548;SDS011;16487;53.094;8.800;2022-10-16T10:22:16;2.10;;;1.60;;
29548;SDS011;16487;53.094;8.800;2022-10-16T10:24:53;1.50;;;1.40;;
29548;SDS011;16487;53.094;8.800;2022-10-16T10:27:23;2.90;;;1.60;;
29548;SDS011;16487;53.094;8.800;2022-10-16T10:29:59;2.70;;;1.50;;
29548;SDS011;16487;53.094;8.800;2022-10-16T10:32:34;2.50;;;1.47;;
29548;SDS011;16487;53.094;8.800;2022-10-16T10:35:12;2.17;;;1.80;;
29548;SDS011;16487;53.094;8.800;2022-10-16T10:37:47;2.40;;;1.03;;
29548;SDS011;16487;53.094;8.800;2022-10-16T10:40:29;1.50;;;1.30;;
29548;SDS011;16487;53.094;8.800;2022-10-16T10:43:15;3.87;;;1.60;;
29548;SDS011;16487;53.094;8.800;2022-10-16T10:45:54;3.07;;;1.90;;
29548;SDS011;16487;53.094;8.800;2022-10-16T10:48:32;1.33;;;1.17;;
29548;SDS011;16487;53.094;8.800;2022-10-16T10:51:12;3.50;;;1.60;;
29548;SDS011;16487;53.094;8.800;2022-10-16T10:53:48;1.90;;;1.10;;
29548;SDS011;16487;53.094;8.800;2022-10-16T10:56:30;2.53;;;1.30;;
29548;SDS011;16487;53.094;8.800;2022-10-16T10:59:19;5.73;;;1.40;;
29548;SDS011;16487;53.094;8.800;2022-10-16T11:02:04;3.57;;;1.20;;
29548;SDS011;16487;53.094;8.800;2022-10-16T11:04:53;2.07;;;1.27;;
29548;SDS011;16487;53.094;8.800;2022-10-16T11:07:45;2.83;;;1.13;;
29548;SDS011;16487;53.094;8.800;2022-10-16T11:10:17;1.90;;;1.00;;
29548;SDS011;16487;53.094;8.800;2022-10-16T11:12:48;3.73;;;1.10;;
29548;SDS011;16487;53.094;8.800;2022-10-16T11:15:21;4.00;;;1.20;;
29548;SDS011;16487;53.094;8.800;2022-10-16T11:17:53;3.20;;;2.47;;
29548;SDS011;16487;53.094;8.800;2022-10-16T11:20:27;1.53;;;1.03;;
29548;SDS011;16487;53.094;8.800;2022-10-16T11:22:59;1.40;;;1.20;;
29548;SDS011;16487;53.094;8.800;2022-10-16T11:25:28;3.10;;;1.33;;
29548;SDS011;16487;53.094;8.800;2022-10-16T11:27:59;1.37;;;1.27;;
29548;SDS011;16487;53.094;8.800;2022-10-16T11:30:33;3.20;;;1.20;;
29548;SDS011;16487;53.094;8.800;2022-10-16T11:33:13;2.03;;;1.20;;
29548;SDS011;16487;53.094;8.800;2022-10-16T11:35:55;1.43;;;1.33;;
29548;SDS011;16487;53.094;8.800;2022-10-16T11:38:28;1.73;;;1.00;;
29548;SDS011;16487;53.094;8.800;2022-10-16T11:40:59;3.13;;;1.33;;
29548;SDS011;16487;53.094;8.800;2022-10-16T11:43:32;1.47;;;1.10;;
29548;SDS011;16487;53.094;8.800;2022-10-16T11:46:08;2.93;;;1.40;;
29548;SDS011;16487;53.094;8.800;2022-10-16T11:48:41;2.73;;;1.17;;
29548;SDS011;16487;53.094;8.800;2022-10-16T11:51:16;3.03;;;1.53;;
29548;SDS011;16487;53.094;8.800;2022-10-16T11:53:53;6.07;;;1.43;;
29548;SDS011;16487;53.094;8.800;2022-10-16T11:56:26;2.90;;;1.40;;
29548;SDS011;16487;53.094;8.800;2022-10-16T11:58:56;2.83;;;1.73;;
29548;SDS011;16487;53.094;8.800;2022-10-16T12:01:28;2.27;;;1.60;;
29548;SDS011;16487;53.094;8.800;2022-10-16T12:04:03;3.23;;;1.47;;
29548;SDS011;16487;53.094;8.800;2022-10-16T12:06:42;2.80;;;1.33;;
29548;SDS011;16487;53.094;8.800;2022-10-16T12:09:15;3.63;;;1.77;;
29548;SDS011;16487;53.094;8.800;2022-10-16T12:11:47;1.93;;;1.27;;
29548;SDS011;16487;53.094;8.800;2022-10-16T12:14:18;3.57;;;1.30;;
29548;SDS011;16487;53.094;8.800;2022-10-16T12:17:22;1.60;;;0.90;;
29548;SDS011;16487;53.094;8.800;2022-10-16T12:20:00;4.03;;;1.50;;
29548;SDS011;16487;53.094;8.800;2022-10-16T12:22:47;1.50;;;0.80;;
29548;SDS011;16487;53.094;8.800;2022-10-16T12:25:24;1.93;;;1.47;;
29548;SDS011;16487;53.094;8.800;2022-10-16T12:27:54;2.23;;;1.10;;
29548;SDS011;16487;53.094;8.800;2022-10-16T12:30:27;3.63;;;1.80;;
29548;SDS011;16487;53.094;8.800;2022-10-16T12:33:01;2.10;;;1.40;;
29548;SDS011;16487;53.094;8.800;2022-10-16T12:35:30;4.23;;;1.60;;
29548;SDS011;16487;53.094;8.800;2022-10-16T12:38:06;2.87;;;1.67;;
29548;SDS011;16487;53.094;8.800;2022-10-16T12:40:39;1.90;;;1.00;;
29548;SDS011;16487;53.094;8.800;2022-10-16T12:43:13;3.43;;;1.37;;
29548;SDS011;16487;53.094;8.800;2022-10-16T12:45:59;2.77;;;1.60;;
29548;SDS011;16487;53.094;8.800;2022-10-16T12:48:28;4.67;;;1.30;;
29548;SDS011;16487;53.094;8.800;2022-10-16T12:51:21;2.43;;;1.40;;
29548;SDS011;16487;53.094;8.800;2022-10-16T12:54:02;2.33;;;1.27;;
29548;SDS011;16487;53.094;8.800;2022-10-16T12:56:35;1.40;;;1.27;;
29548;SDS011;16487;53.094;8.800;2022-10-16T12:59:14;2.60;;;1.23;;
29548;SDS011;16487;53.094;8.800;2022-10-16T13:01:55;3.80;;;1.43;;
29548;SDS011;16487;53.094;8.800;2022-10-16T13:04:55;3.60;;;1.50;;
29548;SDS011;16487;53.094;8.800;2022-10-16T13:07:43;2.20;;;1.60;;
29548;SDS011;16487;53.094;8.800;2022-10-16T13:10:23;8.77;;;2.13;;
29548;SDS011;16487;53.094;8.800;2022-10-16T13:13:02;2.30;;;1.57;;
29548;SDS011;16487;53.094;8.800;2022-10-16T13:15:49;4.00;;;1.70;;
29548;SDS011;16487;53.094;8.800;2022-10-16T13:18:26;3.27;;;1.37;;
29548;SDS011;16487;53.094;8.800;2022-10-16T13:21:06;3.20;;;1.20;;
29548;SDS011;16487;53.094;8.800;2022-10-16T13:23:44;2.17;;;1.10;;
29548;SDS011;16487;53.094;8.800;2022-10-16T13:26:23;2.00;;;1.30;;
29548;SDS011;16487;53.094;8.800;2022-10-16T13:28:58;2.40;;;1.07;;
29548;SDS011;16487;53.094;8.800;2022-10-16T13:31:26;3.73;;;1.40;;
29548;SDS011;16487;53.094;8.800;2022-10-16T13:33:55;3.97;;;1.70;;
29548;SDS011;16487;53.094;8.800;2022-10-16T13:36:26;4.17;;;1.30;;
29548;SDS011;16487;53.094;8.800;2022-10-16T13:41:40;3.30;;;1.50;;
29548;SDS011;16487;53.094;8.800;2022-10-16T13:44:11;2.07;;;1.37;;
29548;SDS011;16487;53.094;8.800;2022-10-16T13:46:42;2.50;;;1.10;;
29548;SDS011;16487;53.094;8.800;2022-10-16T13:49:12;2.60;;;1.70;;
29548;SDS011;16487;53.094;8.800;2022-10-16T13:51:41;3.10;;;1.50;;
29548;SDS011;16487;53.094;8.800;2022-10-16T13:54:09;4.77;;;1.33;;
29548;SDS011;16487;53.094;8.800;2022-10-16T13:56:38;1.77;;;1.50;;
29548;SDS011;16487;53.094;8.800;2022-10-16T13:59:22;29.33;;;20.67;;
29548;SDS011;16487;53.094;8.800;2022-10-16T14:01:51;3.47;;;1.67;;
29548;SDS011;16487;53.094;8.800;2022-10-16T14:04:20;3.70;;;1.73;;
29548;SDS011;16487;53.094;8.800;2022-10-16T14:06:49;5.03;;;1.50;;
29548;SDS011;16487;53.094;8.800;2022-10-16T14:09:20;3.13;;;1.43;;
29548;SDS011;16487;53.094;8.800;2022-10-16T14:11:52;1.97;;;1.10;;
29548;SDS011;16487;53.094;8.800;2022-10-16T14:14:22;4.27;;;1.60;;
29548;SDS011;16487;53.094;8.800;2022-10-16T14:16:50;2.80;;;1.40;;
29548;SDS011;16487;53.094;8.800;2022-10-16T14:19:19;2.67;;;1.23;;
29548;SDS011;16487;53.094;8.800;2022-10-16T14:21:49;3.27;;;1.73;;
29548;SDS011;16487;53.094;8.800;2022-10-16T14:24:24;2.30;;;1.23;;
29548;SDS011;16487;53.094;8.800;2022-10-16T14:26:55;2.13;;;1.00;;
29548;SDS011;16487;53.094;8.800;2022-10-16T14:29:23;2.87;;;1.70;;
29548;SDS011;16487;53.094;8.800;2022-10-16T14:31:56;2.57;;;1.10;;
29548;SDS011;16487;53.094;8.800;2022-10-16T14:34:25;7.57;;;5.30;;
29548;SDS011;16487;53.094;8.800;2022-10-16T14:36:54;2.63;;;1.47;;
29548;SDS011;16487;53.094;8.800;2022-10-16T14:39:22;1.57;;;1.17;;
29548;SDS011;16487;53.094;8.800;2022-10-16T14:41:52;3.53;;;1.70;;
29548;SDS011;16487;53.094;8.800;2022-10-16T14:44:27;2.93;;;1.50;;
29548;SDS011;16487;53.094;8.800;2022-10-16T14:46:57;4.00;;;1.53;;
29548;SDS011;16487;53.094;8.800;2022-10-16T14:49:25;5.00;;;1.40;;
29548;SDS011;16487;53.094;8.800;2022-10-16T14:51:53;4.33;;;2.17;;
29548;SDS011;16487;53.094;8.800;2022-10-16T14:54:20;7.50;;;1.70;;
29548;SDS011;16487;53.094;8.800;2022-10-16T14:56:48;4.50;;;2.43;;
29548;SDS011;16487;53.094;8.800;2022-10-16T14:59:20;3.10;;;1.53;;
29548;SDS011;16487;53.094;8.800;2022-10-16T15:01:51;2.53;;;1.60;;
29548;SDS011;16487;53.094;8.800;2022-10-16T15:04:19;3.60;;;1.70;;
29548;SDS011;16487;53.094;8.800;2022-10-16T15:06:46;4.40;;;1.70;;
29548;SDS011;16487;53.094;8.800;2022-10-16T15:09:13;3.10;;;1.50;;
29548;SDS011;16487;53.094;8.800;2022-10-16T15:11:41;3.80;;;1.53;;